Time;durP1;ratioP1;P1;durP2;ratioP2;P2;SDS_P1;SDS_P2;PMS_P1;PMS_P2;Temp;Humidity;BMP_temperature;BMP_pressure;BME280_temperature;BME280_humidity;BME280_pressure;Samples;Min_cycle;Max_cycle;Signal;HPM_P1;HPM_P2
2023/05/28 00:00:03;;;;;;;5.13;3.40;;;;;;;;;;5055967;28;20233;-84
2023/05/28 00:02:32;;;;;;;6.97;4.00;;;;;;;;;;5056982;28;20245;-85
2023/05/28 00:04:59;;;;;;;6.90;3.57;;;;;;;;;;5063389;28;20225;-84
2023/05/28 00:07:28;;;;;;;4.17;3.53;;;;;;;;;;5056481;28;20251;-84
2023/05/28 00:09:55;;;;;;;4.53;3.00;;;;;;;;;;5053349;28;20253;-86
2023/05/28 00:12:22;;;;;;;8.13;4.00;;;;;;;;;;5053867;28;20204;-84
2023/05/28 00:14:50;;;;;;;6.03;3.80;;;;;;;;;;5052592;28;20241;-84
2023/05/28 00:17:17;;;;;;;4.67;3.67;;;;;;;;;;5044986;28;20221;-85
2023/05/28 00:19:46;;;;;;;9.37;4.00;;;;;;;;;;5044851;28;20241;-84
2023/05/28 00:22:13;;;;;;;4.80;3.60;;;;;;;;;;5054192;28;20212;-84
2023/05/28 00:24:40;;;;;;;6.57;4.63;;;;;;;;;;5054016;28;20260;-85
2023/05/28 00:27:07;;;;;;;6.70;4.37;;;;;;;;;;5054340;28;20291;-85
2023/05/28 00:29:34;;;;;;;3.80;3.50;;;;;;;;;;5053057;28;20680;-85
2023/05/28 00:32:02;;;;;;;5.90;4.10;;;;;;;;;;5059121;28;20205;-84
2023/05/28 00:34:29;;;;;;;6.87;4.10;;;;;;;;;;5048066;28;20202;-84
2023/05/28 00:36:57;;;;;;;6.33;4.57;;;;;;;;;;5050067;28;20313;-85
2023/05/28 00:39:24;;;;;;;4.90;3.97;;;;;;;;;;5048427;28;20203;-85
2023/05/28 00:42:01;;;;;;;5.57;4.07;;;;;;;;;;5054190;28;20233;-84
2023/05/28 00:44:28;;;;;;;7.33;4.40;;;;;;;;;;5046003;28;20214;-85
2023/05/28 00:46:56;;;;;;;6.77;4.40;;;;;;;;;;5053239;28;20218;-85
2023/05/28 00:49:23;;;;;;;5.50;3.90;;;;;;;;;;5056009;28;20293;-84
2023/05/28 00:51:50;;;;;;;7.30;4.57;;;;;;;;;;5053220;28;20226;-85
2023/05/28 00:54:19;;;;;;;4.90;3.87;;;;;;;;;;5045327;28;20198;-84
2023/05/28 00:56:46;;;;;;;8.57;3.93;;;;;;;;;;5052908;28;20597;-84
2023/05/28 00:59:13;;;;;;;5.90;3.80;;;;;;;;;;5053273;28;20202;-84
2023/05/28 01:01:41;;;;;;;5.17;3.90;;;;;;;;;;5053214;28;20509;-85
2023/05/28 01:04:08;;;;;;;5.93;4.63;;;;;;;;;;5053164;28;20249;-84
2023/05/28 01:06:38;;;;;;;6.53;3.60;;;;;;;;;;5043572;28;20244;-85
2023/05/28 01:09:05;;;;;;;6.03;3.80;;;;;;;;;;5049685;28;20552;-83
2023/05/28 01:11:36;;;;;;;6.27;4.30;;;;;;;;;;5053321;28;20229;-84
2023/05/28 01:14:05;;;;;;;5.40;4.03;;;;;;;;;;5052880;28;20206;-84
2023/05/28 01:16:32;;;;;;;7.77;4.37;;;;;;;;;;5057927;28;20234;-84
2023/05/28 01:18:59;;;;;;;6.37;4.30;;;;;;;;;;5053437;28;20213;-85
2023/05/28 01:21:28;;;;;;;6.10;3.90;;;;;;;;;;5052520;28;20237;-84
2023/05/28 01:23:57;;;;;;;6.03;4.13;;;;;;;;;;5053215;28;20226;-85
2023/05/28 01:26:25;;;;;;;4.40;3.73;;;;;;;;;;5047190;28;20242;-85
2023/05/28 01:28:52;;;;;;;7.80;4.50;;;;;;;;;;5066511;28;20240;-85
2023/05/28 01:31:19;;;;;;;5.87;4.20;;;;;;;;;;5052820;28;20238;-85
2023/05/28 01:33:46;;;;;;;6.97;4.70;;;;;;;;;;5046960;28;20203;-85
2023/05/28 01:36:15;;;;;;;4.70;4.17;;;;;;;;;;5051535;28;20260;-85
2023/05/28 01:38:44;;;;;;;5.80;4.10;;;;;;;;;;5045099;28;20202;-85
2023/05/28 01:41:13;;;;;;;8.67;3.90;;;;;;;;;;5052660;28;20244;-85
2023/05/28 01:43:41;;;;;;;4.57;3.77;;;;;;;;;;5047744;28;20225;-85
2023/05/28 01:46:08;;;;;;;6.80;3.87;;;;;;;;;;5056084;28;20447;-85
2023/05/28 01:48:35;;;;;;;8.43;4.50;;;;;;;;;;5055614;28;20639;-85
2023/05/28 01:51:02;;;;;;;5.57;4.23;;;;;;;;;;5056352;28;20233;-85
2023/05/28 01:53:29;;;;;;;6.43;4.10;;;;;;;;;;5053064;28;20194;-85
2023/05/28 01:55:56;;;;;;;5.00;4.27;;;;;;;;;;5055395;28;20592;-84
2023/05/28 01:58:25;;;;;;;6.20;4.07;;;;;;;;;;5045332;28;20222;-85
2023/05/28 02:00:56;;;;;;;6.57;4.17;;;;;;;;;;5055995;28;20722;-84
2023/05/28 02:03:23;;;;;;;6.40;3.83;;;;;;;;;;5056979;28;20213;-85
2023/05/28 02:05:50;;;;;;;6.10;3.90;;;;;;;;;;5056158;28;20249;-84
2023/05/28 02:08:18;;;;;;;6.57;3.90;;;;;;;;;;5049864;28;20250;-85
2023/05/28 02:10:45;;;;;;;8.27;4.20;;;;;;;;;;5051239;28;20240;-84
2023/05/28 02:13:12;;;;;;;7.47;4.27;;;;;;;;;;5059426;28;20202;-84
2023/05/28 02:15:40;;;;;;;6.00;3.83;;;;;;;;;;5047434;28;20233;-85
2023/05/28 02:18:10;;;;;;;5.67;3.90;;;;;;;;;;5055958;28;20283;-85
2023/05/28 02:20:37;;;;;;;4.07;3.67;;;;;;;;;;5056296;28;20718;-84
2023/05/28 02:23:04;;;;;;;5.83;3.70;;;;;;;;;;5057191;28;20588;-84
2023/05/28 02:25:31;;;;;;;6.57;4.40;;;;;;;;;;5048395;28;20309;-84
2023/05/28 02:27:58;;;;;;;6.17;4.00;;;;;;;;;;5056299;28;20245;-85
2023/05/28 02:30:25;;;;;;;6.70;4.17;;;;;;;;;;5047762;28;20241;-84
2023/05/28 02:32:55;;;;;;;10.40;4.30;;;;;;;;;;5058363;28;20289;-84
2023/05/28 02:35:23;;;;;;;6.33;4.37;;;;;;;;;;5051375;28;20244;-84
2023/05/28 02:37:50;;;;;;;7.63;4.60;;;;;;;;;;5057348;28;20221;-85
2023/05/28 02:40:17;;;;;;;4.67;3.83;;;;;;;;;;5060923;28;20233;-84
2023/05/28 02:42:45;;;;;;;9.23;4.17;;;;;;;;;;5061628;28;20218;-84
2023/05/28 02:45:12;;;;;;;5.73;4.03;;;;;;;;;;5053482;28;20718;-84
2023/05/28 02:47:39;;;;;;;4.87;4.00;;;;;;;;;;5041081;28;20591;-84
2023/05/28 02:50:08;;;;;;;4.97;4.30;;;;;;;;;;5054691;28;20265;-84
2023/05/28 02:52:35;;;;;;;7.80;4.27;;;;;;;;;;5042598;28;20580;-85
2023/05/28 02:55:02;;;;;;;5.53;4.50;;;;;;;;;;5059346;28;20248;-84
2023/05/28 02:57:30;;;;;;;7.63;4.00;;;;;;;;;;5047452;28;20234;-84
2023/05/28 02:59:57;;;;;;;4.93;4.23;;;;;;;;;;5046850;28;20262;-85
2023/05/28 03:02:24;;;;;;;5.40;3.77;;;;;;;;;;5047504;28;20202;-84
2023/05/28 03:04:52;;;;;;;5.40;3.80;;;;;;;;;;5054822;28;20237;-85
2023/05/28 03:07:21;;;;;;;5.33;4.20;;;;;;;;;;5053903;28;20221;-84
2023/05/28 03:09:48;;;;;;;4.20;3.50;;;;;;;;;;5054189;28;20229;-84
2023/05/28 03:12:15;;;;;;;6.40;3.90;;;;;;;;;;5054729;28;20210;-85
2023/05/28 03:14:42;;;;;;;6.40;3.73;;;;;;;;;;5051446;28;20201;-84
2023/05/28 03:17:09;;;;;;;6.13;4.20;;;;;;;;;;5056493;28;20229;-85
2023/05/28 03:19:36;;;;;;;11.20;4.30;;;;;;;;;;5054043;28;20209;-85
2023/05/28 03:22:03;;;;;;;6.23;4.00;;;;;;;;;;5059315;28;20209;-85
2023/05/28 03:24:32;;;;;;;5.20;3.63;;;;;;;;;;5057059;28;20222;-84
2023/05/28 03:27:01;;;;;;;5.90;3.83;;;;;;;;;;5052458;28;20233;-85
2023/05/28 03:29:28;;;;;;;4.83;4.03;;;;;;;;;;5052576;28;20841;-84
2023/05/28 03:31:55;;;;;;;4.53;3.80;;;;;;;;;;5043452;28;20206;-84
2023/05/28 03:34:23;;;;;;;5.13;3.80;;;;;;;;;;5054700;28;20567;-84
2023/05/28 03:36:50;;;;;;;9.30;3.90;;;;;;;;;;5054936;28;20226;-84
2023/05/28 03:39:18;;;;;;;5.73;4.17;;;;;;;;;;5038493;28;20198;-84
2023/05/28 03:41:46;;;;;;;4.50;3.87;;;;;;;;;;5056099;28;20707;-84
2023/05/28 03:44:13;;;;;;;5.13;3.53;;;;;;;;;;5054784;28;20214;-85
2023/05/28 03:46:40;;;;;;;6.27;4.70;;;;;;;;;;5054293;28;20613;-85
2023/05/28 03:49:07;;;;;;;6.00;3.93;;;;;;;;;;5052299;28;20679;-85
2023/05/28 03:51:36;;;;;;;5.50;3.80;;;;;;;;;;5054030;28;20236;-85
2023/05/28 03:54:03;;;;;;;5.73;4.07;;;;;;;;;;5046573;28;20202;-84
2023/05/28 03:56:33;;;;;;;4.77;3.77;;;;;;;;;;5054903;28;20249;-84
2023/05/28 03:59:01;;;;;;;5.97;4.47;;;;;;;;;;5047386;28;20202;-84
2023/05/28 04:01:28;;;;;;;10.53;4.17;;;;;;;;;;5054120;28;20230;-84
2023/05/28 04:03:56;;;;;;;5.07;4.10;;;;;;;;;;5060811;28;20236;-83
2023/05/28 04:06:23;;;;;;;5.83;4.00;;;;;;;;;;5060386;28;20700;-84
2023/05/28 04:08:50;;;;;;;7.10;4.20;;;;;;;;;;5072118;28;20255;-84
2023/05/28 04:11:18;;;;;;;5.53;3.90;;;;;;;;;;5070391;28;20233;-85
2023/05/28 04:13:46;;;;;;;6.83;4.10;;;;;;;;;;5051343;28;20198;-84
2023/05/28 04:16:14;;;;;;;5.97;3.73;;;;;;;;;;5041354;28;20761;-85
2023/05/28 04:18:41;;;;;;;4.50;3.80;;;;;;;;;;5044986;28;20238;-84
2023/05/28 04:21:08;;;;;;;6.13;4.20;;;;;;;;;;5051964;28;20226;-85
2023/05/28 04:23:36;;;;;;;6.00;4.10;;;;;;;;;;5045563;28;20205;-85
2023/05/28 04:26:06;;;;;;;5.63;3.90;;;;;;;;;;5053623;28;20225;-85
2023/05/28 04:28:33;;;;;;;6.97;4.53;;;;;;;;;;5051141;28;20216;-85
2023/05/28 04:31:01;;;;;;;7.93;4.10;;;;;;;;;;5058399;28;20726;-85
2023/05/28 04:33:29;;;;;;;6.23;4.07;;;;;;;;;;5054460;28;20206;-85
2023/05/28 04:35:57;;;;;;;7.57;4.50;;;;;;;;;;5053639;28;20316;-85
2023/05/28 04:38:24;;;;;;;5.20;4.30;;;;;;;;;;5053900;28;20230;-85
2023/05/28 04:40:53;;;;;;;5.73;4.47;;;;;;;;;;5053222;28;20226;-85
2023/05/28 04:43:21;;;;;;;7.70;4.80;;;;;;;;;;5053682;28;20293;-84
2023/05/28 04:45:48;;;;;;;5.73;4.50;;;;;;;;;;5053377;28;20232;-84
2023/05/28 04:48:15;;;;;;;8.37;4.90;;;;;;;;;;5053982;28;20225;-84
2023/05/28 04:50:43;;;;;;;9.97;4.70;;;;;;;;;;5046074;28;20229;-85
2023/05/28 04:53:10;;;;;;;8.80;4.93;;;;;;;;;;5048023;28;20214;-84
2023/05/28 04:55:40;;;;;;;7.13;5.13;;;;;;;;;;5045141;28;20245;-84
2023/05/28 04:58:07;;;;;;;6.93;5.13;;;;;;;;;;5053282;28;20214;-84
2023/05/28 05:00:35;;;;;;;8.47;5.30;;;;;;;;;;5052322;28;20312;-83
2023/05/28 05:03:02;;;;;;;7.23;5.53;;;;;;;;;;5039483;28;20572;-84
2023/05/28 05:05:30;;;;;;;12.03;6.13;;;;;;;;;;5050991;28;20688;-84
2023/05/28 05:07:58;;;;;;;6.80;5.37;;;;;;;;;;5052336;28;20275;-84
2023/05/28 05:10:25;;;;;;;7.90;5.77;;;;;;;;;;5052113;28;20242;-85
2023/05/28 05:12:53;;;;;;;8.10;6.13;;;;;;;;;;5053666;28;20202;-84
2023/05/28 05:15:20;;;;;;;7.33;6.07;;;;;;;;;;5052657;28;20234;-84
2023/05/28 05:17:47;;;;;;;12.90;7.07;;;;;;;;;;5053378;28;20220;-85
2023/05/28 05:20:14;;;;;;;9.03;6.37;;;;;;;;;;5052899;28;20226;-85
2023/05/28 05:22:41;;;;;;;8.90;6.47;;;;;;;;;;5054476;28;20206;-84
2023/05/28 05:25:10;;;;;;;8.67;6.33;;;;;;;;;;5055773;28;20233;-84
2023/05/28 05:27:37;;;;;;;7.40;5.87;;;;;;;;;;5044999;28;20592;-84
2023/05/28 05:30:05;;;;;;;11.97;6.53;;;;;;;;;;5052415;28;20234;-85
2023/05/28 05:32:32;;;;;;;13.50;6.30;;;;;;;;;;5053196;28;20241;-85
2023/05/28 05:34:59;;;;;;;8.00;6.77;;;;;;;;;;5055772;28;20230;-83
2023/05/28 05:37:26;;;;;;;9.53;7.43;;;;;;;;;;5056686;28;20224;-84
2023/05/28 05:39:53;;;;;;;10.20;6.87;;;;;;;;;;5056047;28;20233;-84
2023/05/28 05:42:21;;;;;;;10.10;6.50;;;;;;;;;;5059367;28;20221;-83
2023/05/28 05:44:48;;;;;;;9.70;7.10;;;;;;;;;;5062477;28;20320;-84
2023/05/28 05:47:16;;;;;;;12.60;5.83;;;;;;;;;;5059307;28;20226;-84
2023/05/28 05:49:43;;;;;;;9.13;5.97;;;;;;;;;;5055685;28;20208;-85
2023/05/28 05:52:10;;;;;;;11.63;6.37;;;;;;;;;;5059655;28;20661;-85
2023/05/28 05:54:37;;;;;;;13.60;5.70;;;;;;;;;;5056105;28;20572;-85
2023/05/28 05:57:04;;;;;;;8.43;6.10;;;;;;;;;;5060386;28;20222;-85
2023/05/28 05:59:33;;;;;;;9.23;5.67;;;;;;;;;;5052653;28;20202;-84
2023/05/28 06:02:00;;;;;;;11.77;5.80;;;;;;;;;;5042134;28;20205;-85
2023/05/28 06:04:31;;;;;;;7.17;5.77;;;;;;;;;;5045660;28;20277;-85
2023/05/28 06:07:02;;;;;;;6.23;4.90;;;;;;;;;;5050989;28;20253;-86
2023/05/28 06:09:29;;;;;;;10.80;5.77;;;;;;;;;;5055218;28;20206;-85
2023/05/28 06:11:56;;;;;;;10.20;6.17;;;;;;;;;;5055937;28;20226;-86
2023/05/28 06:14:23;;;;;;;7.70;5.30;;;;;;;;;;5057708;28;20208;-86
2023/05/28 06:16:51;;;;;;;8.40;5.20;;;;;;;;;;5059115;28;20226;-86
2023/05/28 06:19:19;;;;;;;6.67;4.60;;;;;;;;;;5056114;28;20319;-85
2023/05/28 06:21:46;;;;;;;9.73;4.90;;;;;;;;;;5055202;28;20229;-85
2023/05/28 06:24:13;;;;;;;6.73;4.80;;;;;;;;;;5052752;28;20201;-86
2023/05/28 06:26:41;;;;;;;7.93;4.93;;;;;;;;;;5054731;28;20288;-86
2023/05/28 06:29:09;;;;;;;6.63;4.57;;;;;;;;;;5054152;28;20666;-85
2023/05/28 06:31:36;;;;;;;6.33;4.30;;;;;;;;;;5063493;28;20229;-86
2023/05/28 06:34:05;;;;;;;8.47;4.50;;;;;;;;;;5057222;28;20259;-85
2023/05/28 06:36:32;;;;;;;5.17;3.83;;;;;;;;;;5047271;28;20229;-86
2023/05/28 06:38:59;;;;;;;5.10;4.03;;;;;;;;;;5067127;28;20684;-86
2023/05/28 06:41:26;;;;;;;5.93;4.20;;;;;;;;;;5055893;28;20707;-86
2023/05/28 06:43:53;;;;;;;6.13;3.77;;;;;;;;;;5049491;28;20460;-86
2023/05/28 06:46:21;;;;;;;6.30;3.83;;;;;;;;;;5061415;28;20232;-86
2023/05/28 06:48:48;;;;;;;10.90;4.00;;;;;;;;;;5055157;28;20269;-83
2023/05/28 06:51:16;;;;;;;6.17;3.70;;;;;;;;;;5056756;28;20226;-88
2023/05/28 06:53:47;;;;;;;5.43;3.47;;;;;;;;;;5049780;28;20229;-85
2023/05/28 06:56:14;;;;;;;7.50;4.37;;;;;;;;;;5055465;28;20283;-85
2023/05/28 06:58:41;;;;;;;4.73;3.70;;;;;;;;;;5055005;28;20194;-85
2023/05/28 07:01:09;;;;;;;4.97;3.33;;;;;;;;;;5054443;28;20228;-87
2023/05/28 07:03:36;;;;;;;6.07;3.47;;;;;;;;;;5055458;28;20206;-85
2023/05/28 07:06:03;;;;;;;4.53;3.33;;;;;;;;;;5054820;28;20229;-85
2023/05/28 07:08:31;;;;;;;5.43;3.70;;;;;;;;;;5055056;28;20228;-86
2023/05/28 07:10:59;;;;;;;5.00;3.20;;;;;;;;;;5054722;28;20229;-86
2023/05/28 07:13:26;;;;;;;6.67;3.47;;;;;;;;;;5052103;28;20197;-86
2023/05/28 07:15:53;;;;;;;5.40;3.37;;;;;;;;;;5053686;28;20221;-85
2023/05/28 07:18:22;;;;;;;5.80;3.50;;;;;;;;;;5053542;28;20222;-85
2023/05/28 07:20:49;;;;;;;6.18;2.95;;;;;;;;;;5055536;28;20244;-85
2023/05/28 07:23:16;;;;;;;8.85;4.22;;;;;;;;;;5053313;28;20202;-83
2023/05/28 07:25:45;;;;;;;5.65;3.90;;;;;;;;;;5046139;28;20230;-83
2023/05/28 07:28:12;;;;;;;5.57;3.30;;;;;;;;;;5053303;28;20703;-84
2023/05/28 07:30:39;;;;;;;6.72;3.60;;;;;;;;;;5052547;28;20240;-83
2023/05/28 07:33:06;;;;;;;5.65;3.13;;;;;;;;;;5053096;28;20198;-85
2023/05/28 07:35:34;;;;;;;8.45;3.63;;;;;;;;;;5045140;28;20230;-84
2023/05/28 07:38:02;;;;;;;5.97;3.28;;;;;;;;;;5063834;28;20225;-86
2023/05/28 07:40:29;;;;;;;4.68;3.00;;;;;;;;;;5054697;28;20336;-85
2023/05/28 07:42:58;;;;;;;5.28;3.17;;;;;;;;;;5056091;28;20210;-86
2023/05/28 07:45:25;;;;;;;4.70;2.97;;;;;;;;;;5051660;28;20238;-85
2023/05/28 07:47:52;;;;;;;5.40;2.90;;;;;;;;;;5052523;28;20221;-84
2023/05/28 07:50:19;;;;;;;5.70;3.03;;;;;;;;;;5052123;28;20233;-85
2023/05/28 07:52:47;;;;;;;3.97;3.10;;;;;;;;;;5044304;28;20206;-85
2023/05/28 07:55:14;;;;;;;6.38;3.67;;;;;;;;;;5050852;28;20275;-86
2023/05/28 07:57:41;;;;;;;6.80;3.28;;;;;;;;;;5052212;28;20299;-86
2023/05/28 08:00:15;;;;;;;6.22;3.25;;;;;;;;;;5052483;28;20225;-84
2023/05/28 08:02:43;;;;;;;6.72;3.25;;;;;;;;;;5052121;28;20255;-86
2023/05/28 08:05:10;;;;;;;5.63;3.15;;;;;;;;;;5051505;28;20234;-85
2023/05/28 08:07:37;;;;;;;8.43;3.20;;;;;;;;;;5052065;28;20225;-86
2023/05/28 08:10:04;;;;;;;6.35;3.20;;;;;;;;;;5051969;28;20745;-86
2023/05/28 08:12:31;;;;;;;7.30;3.55;;;;;;;;;;5052251;28;20210;-88
2023/05/28 08:14:58;;;;;;;4.35;3.28;;;;;;;;;;5061442;28;20230;-86
2023/05/28 08:17:31;;;;;;;4.65;3.33;;;;;;;;;;5037976;28;20644;-88
2023/05/28 08:19:58;;;;;;;7.22;3.08;;;;;;;;;;5054036;28;20707;-87
2023/05/28 08:22:25;;;;;;;6.28;3.50;;;;;;;;;;5052094;28;20202;-85
2023/05/28 08:24:52;;;;;;;7.00;3.45;;;;;;;;;;5045954;28;20253;-83
2023/05/28 08:27:19;;;;;;;9.43;3.80;;;;;;;;;;5054748;23;20641;-83
2023/05/28 08:29:46;;;;;;;6.03;3.30;;;;;;;;;;5042895;28;20234;-83
2023/05/28 08:32:13;;;;;;;5.35;3.65;;;;;;;;;;5050264;28;20293;-82
2023/05/28 08:34:42;;;;;;;4.65;3.08;;;;;;;;;;5048511;28;20229;-82
2023/05/28 08:37:09;;;;;;;6.43;3.13;;;;;;;;;;5048866;28;20240;-82
2023/05/28 08:39:36;;;;;;;7.78;3.20;;;;;;;;;;5050683;28;20222;-83
2023/05/28 08:42:03;;;;;;;4.82;3.15;;;;;;;;;;5051271;28;20209;-83
2023/05/28 08:44:30;;;;;;;5.55;3.20;;;;;;;;;;5050422;28;20210;-83
2023/05/28 08:46:57;;;;;;;5.80;3.30;;;;;;;;;;5043069;28;20222;-84
2023/05/28 08:49:27;;;;;;;6.63;3.20;;;;;;;;;;5042999;28;20206;-83
2023/05/28 08:51:56;;;;;;;5.80;3.10;;;;;;;;;;5051043;28;20229;-82
2023/05/28 08:54:23;;;;;;;6.88;3.50;;;;;;;;;;5050453;28;20214;-83
2023/05/28 08:56:50;;;;;;;5.65;3.25;;;;;;;;;;5039012;28;20242;-82
2023/05/28 08:59:17;;;;;;;5.35;3.05;;;;;;;;;;5039385;28;20556;-82
2023/05/28 09:01:45;;;;;;;3.65;3.10;;;;;;;;;;5049677;28;20295;-83
2023/05/28 09:04:12;;;;;;;6.15;3.20;;;;;;;;;;5044037;28;20211;-83
2023/05/28 09:06:39;;;;;;;4.70;3.30;;;;;;;;;;5046412;28;20234;-85
2023/05/28 09:09:09;;;;;;;4.72;3.05;;;;;;;;;;5048495;28;20305;-82
2023/05/28 09:11:36;;;;;;;4.70;3.35;;;;;;;;;;5054702;28;20233;-84
2023/05/28 09:14:10;;;;;;;5.07;3.45;;;;;;;;;;5049336;28;20219;-81
2023/05/28 09:16:40;;;;;;;4.78;3.03;;;;;;;;;;5052939;28;20249;-85
2023/05/28 09:19:08;;;;;;;8.35;3.22;;;;;;;;;;5055220;28;20230;-84
2023/05/28 09:21:36;;;;;;;4.93;3.22;;;;;;;;;;5046167;28;20250;-87
2023/05/28 09:24:03;;;;;;;5.55;3.10;;;;;;;;;;5050167;28;20867;-86
2023/05/28 09:26:32;;;;;;;4.25;3.05;;;;;;;;;;5051888;28;20237;-87
2023/05/28 09:28:59;;;;;;;4.03;3.13;;;;;;;;;;5054940;28;20221;-85
2023/05/28 09:31:32;;;;;;;6.15;3.08;;;;;;;;;;5046529;28;20234;-85
2023/05/28 09:34:00;;;;;;;4.65;2.80;;;;;;;;;;5050572;28;20289;-85
2023/05/28 09:36:28;;;;;;;5.55;3.45;;;;;;;;;;5052048;28;20253;-86
2023/05/28 09:38:57;;;;;;;4.75;3.35;;;;;;;;;;5055539;28;20234;-87
2023/05/28 09:41:24;;;;;;;6.03;3.05;;;;;;;;;;5046560;28;20232;-87
2023/05/28 09:43:58;;;;;;;7.93;3.10;;;;;;;;;;5046976;28;20202;-88
2023/05/28 09:46:29;;;;;;;5.60;2.67;;;;;;;;;;5046516;28;20245;-89
2023/05/28 09:48:56;;;;;;;5.53;3.10;;;;;;;;;;5054864;28;20272;-84
2023/05/28 09:51:26;;;;;;;6.38;3.58;;;;;;;;;;5053956;28;20226;-84
2023/05/28 09:53:55;;;;;;;3.60;3.03;;;;;;;;;;5050458;28;20203;-84
2023/05/28 09:56:22;;;;;;;4.47;3.03;;;;;;;;;;5049957;28;20695;-84
2023/05/28 09:58:52;;;;;;;6.72;3.17;;;;;;;;;;5045740;28;20613;-83
2023/05/28 10:01:24;;;;;;;4.75;3.00;;;;;;;;;;5053956;28;20245;-83
2023/05/28 10:03:54;;;;;;;4.82;3.15;;;;;;;;;;5045757;28;20210;-84
2023/05/28 10:06:23;;;;;;;5.47;3.53;;;;;;;;;;5053547;28;20221;-83
2023/05/28 10:08:52;;;;;;;5.18;3.08;;;;;;;;;;5050416;28;20257;-85
2023/05/28 10:11:23;;;;;;;5.25;3.03;;;;;;;;;;5049060;28;20276;-83
2023/05/28 10:13:50;;;;;;;6.10;3.75;;;;;;;;;;5053581;28;20553;-86
2023/05/28 10:16:17;;;;;;;3.90;3.28;;;;;;;;;;5053583;28;20226;-86
2023/05/28 10:18:45;;;;;;;7.28;3.30;;;;;;;;;;5036948;28;20231;-83
2023/05/28 10:21:13;;;;;;;6.78;3.22;;;;;;;;;;5053189;28;20222;-84
2023/05/28 10:23:41;;;;;;;5.07;3.22;;;;;;;;;;5053522;28;20234;-84
2023/05/28 10:26:09;;;;;;;6.53;3.60;;;;;;;;;;5053032;28;20236;-83
2023/05/28 10:28:36;;;;;;;4.95;3.30;;;;;;;;;;5052321;28;20234;-84
2023/05/28 10:31:05;;;;;;;3.35;2.75;;;;;;;;;;5046608;28;20233;-84
2023/05/28 10:33:33;;;;;;;5.22;3.05;;;;;;;;;;5045446;28;20297;-84
2023/05/28 10:36:01;;;;;;;5.05;2.95;;;;;;;;;;5048742;28;20230;-83
2023/05/28 10:38:28;;;;;;;6.43;3.40;;;;;;;;;;5041645;28;20238;-85
2023/05/28 10:41:02;;;;;;;7.25;3.35;;;;;;;;;;5047990;28;20703;-85
2023/05/28 10:43:41;;;;;;;7.07;3.42;;;;;;;;;;5053318;28;20259;-83
2023/05/28 10:46:10;;;;;;;6.07;3.10;;;;;;;;;;5044489;28;20334;-86
2023/05/28 10:48:38;;;;;;;5.60;4.10;;;;;;;;;;5044762;28;20231;-85
2023/05/28 10:51:07;;;;;;;4.97;3.55;;;;;;;;;;5053389;28;20723;-86
2023/05/28 10:53:34;;;;;;;4.00;3.10;;;;;;;;;;5053647;28;20676;-88
2023/05/28 10:56:02;;;;;;;4.03;3.00;;;;;;;;;;5053397;28;20228;-88
2023/05/28 10:58:30;;;;;;;4.50;2.92;;;;;;;;;;5053469;28;20272;-88
2023/05/28 11:01:02;;;;;;;5.13;3.10;;;;;;;;;;5041016;28;20237;-90
2023/05/28 11:03:42;;;;;;;5.07;3.13;;;;;;;;;;5053218;28;20206;-89
2023/05/28 11:06:11;;;;;;;4.38;3.10;;;;;;;;;;5052770;28;20233;-90
2023/05/28 11:08:39;;;;;;;4.43;3.38;;;;;;;;;;5045819;28;20246;-90
2023/05/28 11:11:07;;;;;;;5.18;3.30;;;;;;;;;;5053942;28;20287;-90
2023/05/28 11:13:34;;;;;;;4.55;3.40;;;;;;;;;;5053767;28;20206;-90
2023/05/28 11:16:07;;;;;;;4.38;3.00;;;;;;;;;;5049238;28;20317;-90
2023/05/28 11:18:34;;;;;;;6.50;3.40;;;;;;;;;;5051018;28;20715;-91
2023/05/28 11:21:03;;;;;;;4.28;3.20;;;;;;;;;;5052961;28;20603;-90
2023/05/28 11:23:32;;;;;;;6.13;3.05;;;;;;;;;;5053822;28;20210;-88
2023/05/28 11:25:59;;;;;;;4.63;3.33;;;;;;;;;;5044964;28;20230;-85
2023/05/28 11:28:26;;;;;;;3.67;3.10;;;;;;;;;;5053562;28;20680;-92
2023/05/28 11:30:53;;;;;;;6.88;3.40;;;;;;;;;;5053436;28;20280;-91
2023/05/28 11:33:20;;;;;;;5.65;3.67;;;;;;;;;;5053626;28;20198;-89
2023/05/28 11:35:56;;;;;;;3.97;3.42;;;;;;;;;;5053188;28;20266;-90
2023/05/28 11:38:23;;;;;;;4.80;3.03;;;;;;;;;;5053939;28;20229;-90
2023/05/28 11:40:58;;;;;;;4.57;3.05;;;;;;;;;;5053028;28;20240;-89
2023/05/28 11:43:25;;;;;;;3.42;2.70;;;;;;;;;;5053660;28;20206;-91
2023/05/28 11:45:55;;;;;;;4.60;3.17;;;;;;;;;;5054373;28;20234;-91
2023/05/28 11:48:22;;;;;;;4.60;3.63;;;;;;;;;;5053471;28;20711;-91
2023/05/28 11:50:50;;;;;;;5.40;3.40;;;;;;;;;;5052981;28;20687;-91
2023/05/28 11:53:17;;;;;;;6.25;3.08;;;;;;;;;;5053404;28;20722;-91
2023/05/28 11:55:44;;;;;;;4.20;3.10;;;;;;;;;;5052552;28;20234;-84
2023/05/28 11:58:12;;;;;;;5.03;3.10;;;;;;;;;;5052683;28;20218;-88
2023/05/28 12:00:39;;;;;;;4.47;3.33;;;;;;;;;;5051626;28;20237;-91
2023/05/28 12:03:06;;;;;;;4.28;3.00;;;;;;;;;;5050251;28;20205;-90
2023/05/28 12:05:37;;;;;;;6.75;3.47;;;;;;;;;;5044319;28;20226;-89
2023/05/28 12:08:05;;;;;;;7.20;3.10;;;;;;;;;;5053146;28;20253;-90
2023/05/28 12:10:32;;;;;;;3.70;3.13;;;;;;;;;;5052641;28;20233;-90
2023/05/28 12:13:00;;;;;;;5.95;3.53;;;;;;;;;;5049596;28;20210;-85
2023/05/28 12:15:30;;;;;;;4.60;3.67;;;;;;;;;;5048180;28;20229;-91
2023/05/28 12:17:58;;;;;;;3.95;3.20;;;;;;;;;;5049692;28;20226;-90
2023/05/28 12:20:31;;;;;;;4.28;3.10;;;;;;;;;;5047731;28;20226;-90
2023/05/28 12:23:06;;;;;;;5.28;3.70;;;;;;;;;;5052697;28;20480;-90
2023/05/28 12:25:55;;;;;;;4.60;3.35;;;;;;;;;;5052213;28;20229;-89
2023/05/28 12:28:22;;;;;;;4.55;3.22;;;;;;;;;;5043997;28;20284;-90
2023/05/28 12:30:52;;;;;;;5.00;3.38;;;;;;;;;;5051966;28;20229;-90
2023/05/28 12:33:20;;;;;;;4.13;3.33;;;;;;;;;;5052995;28;20210;-89
2023/05/28 12:35:47;;;;;;;5.07;3.47;;;;;;;;;;5051686;28;20317;-90
2023/05/28 12:38:14;;;;;;;4.60;3.03;;;;;;;;;;5046886;28;20233;-89
2023/05/28 12:40:42;;;;;;;5.78;3.25;;;;;;;;;;5048789;28;20250;-89
2023/05/28 12:43:09;;;;;;;3.88;3.22;;;;;;;;;;5046703;28;20203;-91
2023/05/28 12:45:36;;;;;;;5.93;3.42;;;;;;;;;;5048363;28;20229;-90
2023/05/28 12:48:05;;;;;;;4.10;3.15;;;;;;;;;;5052544;28;20233;-90
2023/05/28 12:50:32;;;;;;;4.28;3.15;;;;;;;;;;5051184;28;20608;-89
2023/05/28 12:52:59;;;;;;;4.05;3.38;;;;;;;;;;5051892;28;20201;-86
2023/05/28 12:55:26;;;;;;;4.82;3.13;;;;;;;;;;5043763;28;20229;-90
2023/05/28 12:57:53;;;;;;;5.07;3.10;;;;;;;;;;5052024;28;20257;-89
2023/05/28 13:00:21;;;;;;;4.70;3.63;;;;;;;;;;5051296;28;20232;-90
2023/05/28 13:02:48;;;;;;;4.15;3.55;;;;;;;;;;5052443;28;20214;-89
2023/05/28 13:05:17;;;;;;;4.97;3.20;;;;;;;;;;5045917;28;20226;-90
2023/05/28 13:07:44;;;;;;;3.83;3.10;;;;;;;;;;5048417;28;20259;-89
2023/05/28 13:10:12;;;;;;;5.25;3.38;;;;;;;;;;5040050;28;20715;-90
2023/05/28 13:12:39;;;;;;;6.32;3.67;;;;;;;;;;5040131;28;20703;-87
2023/05/28 13:15:07;;;;;;;5.57;3.53;;;;;;;;;;5050821;28;20230;-88
2023/05/28 13:17:34;;;;;;;4.20;3.22;;;;;;;;;;5052132;28;20226;-89
2023/05/28 13:20:04;;;;;;;6.78;3.90;;;;;;;;;;5050871;28;20241;-87
2023/05/28 13:22:35;;;;;;;6.20;3.47;;;;;;;;;;5043394;28;20222;-88
2023/05/28 13:25:02;;;;;;;7.85;3.53;;;;;;;;;;5051365;28;20226;-86
2023/05/28 13:27:30;;;;;;;6.68;3.35;;;;;;;;;;5044119;28;20230;-88
2023/05/28 13:29:57;;;;;;;5.45;3.58;;;;;;;;;;5050107;28;20645;-87
2023/05/28 13:32:24;;;;;;;4.20;3.25;;;;;;;;;;5051983;28;20210;-88
2023/05/28 13:34:51;;;;;;;4.05;3.10;;;;;;;;;;5042157;28;20237;-86
2023/05/28 13:37:18;;;;;;;5.95;3.78;;;;;;;;;;5045900;28;20891;-87
2023/05/28 13:39:47;;;;;;;4.22;3.50;;;;;;;;;;5048291;28;20244;-86
2023/05/28 13:42:19;;;;;;;4.18;3.20;;;;;;;;;;5043350;28;20213;-87
2023/05/28 13:44:46;;;;;;;4.32;3.28;;;;;;;;;;5050828;28;20238;-88
2023/05/28 13:47:13;;;;;;;5.35;3.50;;;;;;;;;;5053650;28;20265;-89
2023/05/28 13:49:41;;;;;;;4.38;3.30;;;;;;;;;;5051095;28;20214;-88
2023/05/28 13:52:08;;;;;;;4.10;3.63;;;;;;;;;;5052272;28;20209;-88
2023/05/28 13:54:35;;;;;;;3.45;3.15;;;;;;;;;;5053038;28;20604;-86
2023/05/28 13:57:04;;;;;;;4.93;3.25;;;;;;;;;;5055090;28;20664;-86
2023/05/28 13:59:31;;;;;;;4.40;3.20;;;;;;;;;;5054397;28;20237;-87
2023/05/28 14:01:58;;;;;;;4.30;3.42;;;;;;;;;;5051389;28;20209;-87
2023/05/28 14:04:25;;;;;;;5.18;3.72;;;;;;;;;;5046831;28;20210;-88
2023/05/28 14:06:52;;;;;;;4.30;3.60;;;;;;;;;;5046312;28;20763;-88
2023/05/28 14:09:19;;;;;;;6.00;3.83;;;;;;;;;;5054995;28;20202;-88
2023/05/28 14:11:47;;;;;;;4.25;3.60;;;;;;;;;;5053830;28;20230;-88
2023/05/28 14:14:15;;;;;;;7.78;3.63;;;;;;;;;;5048569;28;20234;-88
2023/05/28 14:16:42;;;;;;;5.40;3.42;;;;;;;;;;5054462;28;20245;-89
2023/05/28 14:19:09;;;;;;;4.82;3.10;;;;;;;;;;5051151;28;20226;-89
2023/05/28 14:21:36;;;;;;;4.93;3.55;;;;;;;;;;5050308;28;20226;-90
2023/05/28 14:24:03;;;;;;;5.38;3.38;;;;;;;;;;5057479;28;20213;-88
2023/05/28 14:26:30;;;;;;;3.80;3.03;;;;;;;;;;5054385;28;20230;-89
2023/05/28 14:28:57;;;;;;;5.97;3.38;;;;;;;;;;5054194;28;20262;-88
2023/05/28 14:31:26;;;;;;;5.78;3.30;;;;;;;;;;5053647;28;20226;-88
2023/05/28 14:33:53;;;;;;;4.50;3.33;;;;;;;;;;5044307;28;20631;-87
2023/05/28 14:36:20;;;;;;;6.45;3.17;;;;;;;;;;5041847;28;20241;-86
2023/05/28 14:38:47;;;;;;;5.60;3.58;;;;;;;;;;5050235;28;20226;-87
2023/05/28 14:41:14;;;;;;;5.07;3.25;;;;;;;;;;5046111;28;20229;-86
2023/05/28 14:43:41;;;;;;;5.50;3.60;;;;;;;;;;5053934;28;20242;-87
2023/05/28 14:46:08;;;;;;;3.90;3.28;;;;;;;;;;5053261;28;20233;-85